Time;durP1;ratioP1;P1;durP2;ratioP2;P2;SDS_P1;SDS_P2;PMS_P1;PMS_P2;Temp;Humidity;BMP_temperature;BMP_pressure;BME280_temperature;BME280_humidity;BME280_pressure;Samples;Min_cycle;Max_cycle;Signal;HPM_P1;HPM_P2
2022/12/20 00:00:31;;;;;;;;;;;8.00;99.90;;;;;;5019988;28;19924;-72
2022/12/20 00:02:57;;;;;;;;;;;8.00;99.90;;;;;;5025211;28;19913;-72
2022/12/20 00:05:22;;;;;;;;;;;8.00;99.90;;;;;;5025822;28;19912;-73
2022/12/20 00:07:48;;;;;;;;;;;8.00;99.90;;;;;;5023753;28;19966;-72
2022/12/20 00:10:14;;;;;;;;;;;8.10;99.90;;;;;;5020213;28;19935;-72
2022/12/20 00:12:39;;;;;;;;;;;8.10;99.90;;;;;;5020216;28;19912;-72
2022/12/20 00:15:05;;;;;;;;;;;8.10;99.90;;;;;;5024247;28;19942;-71
2022/12/20 00:17:31;;;;;;;;;;;8.10;99.90;;;;;;5024227;28;20331;-72
2022/12/20 00:19:57;;;;;;;;;;;8.10;99.90;;;;;;5023154;28;20533;-71
2022/12/20 00:22:22;;;;;;;;;;;8.10;99.90;;;;;;5025093;28;19913;-72
2022/12/20 00:24:48;;;;;;;;;;;8.20;99.90;;;;;;5005116;28;19916;-72
2022/12/20 00:27:13;;;;;;;;;;;8.20;99.90;;;;;;5024205;28;19928;-68
2022/12/20 00:29:40;;;;;;;;;;;8.20;99.90;;;;;;5024340;28;19991;-65
2022/12/20 00:32:05;;;;;;;;;;;8.20;99.90;;;;;;5006652;28;20661;-68
2022/12/20 00:34:31;;;;;;;;;;;8.20;99.90;;;;;;5018996;28;19944;-67
2022/12/20 00:36:56;;;;;;;;;;;8.20;99.90;;;;;;5029819;28;19970;-68
2022/12/20 00:39:22;;;;;;;;;;;8.20;99.90;;;;;;5023913;28;19916;-67
2022/12/20 00:41:48;;;;;;;;;;;8.20;99.90;;;;;;5012825;28;19928;-68
2022/12/20 00:44:13;;;;;;;;;;;8.20;99.90;;;;;;5008255;28;19913;-69
2022/12/20 00:46:39;;;;;;;;;;;8.20;99.90;;;;;;5024993;28;20353;-69
2022/12/20 00:49:06;;;;;;;;;;;8.20;99.90;;;;;;5022936;28;19981;-68
2022/12/20 00:51:31;;;;;;;;;;;8.20;99.90;;;;;;5025085;28;19913;-68
2022/12/20 00:54:04;;;;;;;;;;;8.20;99.90;;;;;;5016218;28;19928;-69
2022/12/20 00:56:32;;;;;;;;;;;8.20;99.90;;;;;;5002132;28;20395;-67
2022/12/20 00:58:59;;;;;;;;;;;8.10;99.90;;;;;;5022078;28;19924;-67
2022/12/20 01:01:29;;;;;;;;;;;8.20;99.90;;;;;;5024057;28;19917;-67
2022/12/20 01:03:54;;;;;;;;;;;8.20;99.90;;;;;;5003037;28;19913;-68
2022/12/20 01:06:20;;;;;;;;;;;8.20;99.90;;;;;;5020403;28;19924;-67
2022/12/20 01:08:46;;;;;;;;;;;8.30;99.90;;;;;;5022805;28;19916;-66
2022/12/20 01:11:15;;;;;;;;;;;8.30;99.90;;;;;;5004686;28;20521;-66
2022/12/20 01:13:42;;;;;;;;;;;8.30;99.90;;;;;;5019291;28;20365;-67
2022/12/20 01:16:11;;;;;;;;;;;8.30;99.90;;;;;;5018731;28;19990;-67
2022/12/20 01:18:37;;;;;;;;;;;8.30;99.90;;;;;;5025158;28;19962;-67
2022/12/20 01:21:03;;;;;;;;;;;8.30;99.90;;;;;;5025736;28;19916;-67
2022/12/20 01:23:29;;;;;;;;;;;8.30;99.90;;;;;;5007656;28;19928;-68
2022/12/20 01:25:56;;;;;;;;;;;8.40;99.90;;;;;;5025677;28;19913;-67
2022/12/20 01:28:22;;;;;;;;;;;8.40;99.90;;;;;;5021289;28;20323;-67
2022/12/20 01:30:49;;;;;;;;;;;8.50;99.90;;;;;;5026877;28;19921;-67
2022/12/20 01:33:14;;;;;;;;;;;8.50;99.90;;;;;;5024416;28;20316;-66
2022/12/20 01:35:40;;;;;;;;;;;8.50;99.90;;;;;;5021214;28;19967;-67
2022/12/20 01:38:09;;;;;;;;;;;8.50;99.90;;;;;;5008059;28;19944;-67
2022/12/20 01:40:38;;;;;;;;;;;8.50;99.90;;;;;;5023040;28;20074;-66
2022/12/20 01:43:04;;;;;;;;;;;8.60;99.90;;;;;;5029558;28;20031;-69
2022/12/20 01:45:30;;;;;;;;;;;8.50;99.90;;;;;;5029103;28;20075;-67
2022/12/20 01:47:56;;;;;;;;;;;8.50;99.90;;;;;;5026900;28;20310;-68
2022/12/20 01:50:22;;;;;;;;;;;8.50;99.90;;;;;;5028130;28;20000;-68
2022/12/20 01:52:48;;;;;;;;;;;8.50;99.90;;;;;;5032167;28;20027;-68
2022/12/20 01:55:16;;;;;;;;;;;8.50;99.90;;;;;;5023548;28;20327;-68
2022/12/20 01:58:01;;;;;;;;;;;8.50;99.90;;;;;;5028648;28;19909;-68
2022/12/20 02:00:26;;;;;;;;;;;8.60;99.90;;;;;;5028100;28;20004;-67
2022/12/20 02:02:52;;;;;;;;;;;8.60;99.90;;;;;;5030000;28;20003;-67
2022/12/20 02:05:19;;;;;;;;;;;8.60;99.90;;;;;;5027138;28;19923;-68
2022/12/20 02:07:47;;;;;;;;;;;8.60;99.90;;;;;;5028121;28;20246;-67
2022/12/20 02:10:13;;;;;;;;;;;8.60;99.90;;;;;;5028207;28;19992;-68
2022/12/20 02:12:39;;;;;;;;;;;8.60;99.90;;;;;;5026942;28;20370;-67
2022/12/20 02:15:08;;;;;;;;;;;8.60;99.90;;;;;;5025327;28;19967;-69
2022/12/20 02:17:34;;;;;;;;;;;8.60;99.90;;;;;;5028329;28;20326;-67
2022/12/20 02:20:14;;;;;;;;;;;8.70;99.90;;;;;;5026778;28;19924;-67
2022/12/20 02:22:49;;;;;;;;;;;8.70;99.90;;;;;;5026701;28;19944;-68
2022/12/20 02:25:30;;;;;;;;;;;8.70;99.90;;;;;;5028409;28;19927;-68
2022/12/20 02:28:19;;;;;;;;;;;8.70;99.90;;;;;;5023555;28;19916;-68
2022/12/20 02:30:44;;;;;;;;;;;8.70;99.90;;;;;;5027944;28;20392;-67
2022/12/20 02:33:10;;;;;;;;;;;8.70;99.90;;;;;;5032197;28;19956;-68
2022/12/20 02:35:37;;;;;;;;;;;8.70;99.90;;;;;;5028326;28;19923;-68
2022/12/20 02:38:03;;;;;;;;;;;8.70;99.90;;;;;;5014858;28;19928;-68
2022/12/20 02:40:34;;;;;;;;;;;8.70;99.90;;;;;;5034235;28;20326;-68
2022/12/20 02:43:00;;;;;;;;;;;8.70;99.90;;;;;;5029409;28;19921;-69
2022/12/20 02:45:27;;;;;;;;;;;8.80;99.90;;;;;;5008885;28;20390;-68
2022/12/20 02:47:57;;;;;;;;;;;8.80;99.90;;;;;;5015276;28;19913;-68
2022/12/20 02:50:37;;;;;;;;;;;8.80;99.90;;;;;;5031727;28;19913;-68
2022/12/20 02:53:03;;;;;;;;;;;8.80;99.90;;;;;;5013239;28;19999;-69
2022/12/20 02:55:38;;;;;;;;;;;8.80;99.90;;;;;;5000247;28;19914;-68
2022/12/20 02:58:24;;;;;;;;;;;8.80;99.90;;;;;;5011350;28;19921;-68
2022/12/20 03:00:50;;;;;;;;;;;8.90;99.90;;;;;;5031436;28;20190;-69
2022/12/20 03:03:22;;;;;;;;;;;8.90;99.90;;;;;;5031622;28;19981;-68
2022/12/20 03:05:48;;;;;;;;;;;8.90;99.90;;;;;;5031562;28;19923;-67
2022/12/20 03:08:13;;;;;;;;;;;8.90;99.90;;;;;;5012875;28;20242;-68
2022/12/20 03:10:39;;;;;;;;;;;8.90;99.90;;;;;;5031691;28;19913;-67
2022/12/20 03:13:04;;;;;;;;;;;8.90;99.90;;;;;;5032432;28;19909;-67
2022/12/20 03:15:30;;;;;;;;;;;9.00;99.90;;;;;;5032227;28;19913;-67
2022/12/20 03:17:56;;;;;;;;;;;8.90;99.90;;;;;;5030852;28;19916;-66
2022/12/20 03:20:21;;;;;;;;;;;8.90;99.90;;;;;;5031350;28;20381;-67
2022/12/20 03:22:47;;;;;;;;;;;9.00;99.90;;;;;;5029969;28;20233;-66
2022/12/20 03:25:12;;;;;;;;;;;9.00;99.90;;;;;;5027163;28;19917;-67
2022/12/20 03:27:38;;;;;;;;;;;9.00;99.90;;;;;;5029418;28;19913;-67
2022/12/20 03:30:04;;;;;;;;;;;9.00;99.90;;;;;;5032274;28;20402;-67
2022/12/20 03:32:30;;;;;;;;;;;9.10;99.90;;;;;;5031089;28;20355;-67
2022/12/20 03:34:56;;;;;;;;;;;9.10;99.90;;;;;;5027580;28;20313;-68
2022/12/20 03:37:21;;;;;;;;;;;9.00;99.90;;;;;;5031235;28;19920;-68
2022/12/20 03:39:47;;;;;;;;;;;9.10;99.90;;;;;;5015083;28;20323;-67
2022/12/20 03:42:13;;;;;;;;;;;9.10;99.90;;;;;;5030710;28;20603;-67
2022/12/20 03:44:38;;;;;;;;;;;9.10;99.90;;;;;;5030723;28;19917;-68
2022/12/20 03:47:04;;;;;;;;;;;9.10;99.90;;;;;;5013153;28;19999;-68
2022/12/20 03:49:29;;;;;;;;;;;9.20;99.90;;;;;;5030457;28;20286;-67
2022/12/20 03:51:55;;;;;;;;;;;9.20;99.90;;;;;;5029814;28;19917;-68
2022/12/20 03:54:21;;;;;;;;;;;9.30;99.90;;;;;;5030712;28;19952;-67
2022/12/20 03:56:46;;;;;;;;;;;9.30;99.90;;;;;;5030639;28;19968;-67
2022/12/20 03:59:12;;;;;;;;;;;9.20;99.90;;;;;;5030894;28;19913;-67
2022/12/20 04:01:38;;;;;;;;;;;9.30;99.90;;;;;;5025436;28;19913;-68
2022/12/20 04:04:03;;;;;;;;;;;9.30;99.90;;;;;;5031869;28;19912;-67
2022/12/20 04:06:29;;;;;;;;;;;9.30;99.90;;;;;;5030480;28;20007;-67
2022/12/20 04:08:54;;;;;;;;;;;9.30;99.90;;;;;;5024861;28;20752;-69
2022/12/20 04:11:20;;;;;;;;;;;9.40;99.90;;;;;;5030682;28;19925;-67
2022/12/20 04:13:47;;;;;;;;;;;9.30;99.90;;;;;;5030176;28;19925;-68
2022/12/20 04:16:12;;;;;;;;;;;9.30;99.90;;;;;;5021031;28;20422;-68
2022/12/20 04:18:38;;;;;;;;;;;9.30;99.90;;;;;;5010527;28;19988;-67
2022/12/20 04:21:05;;;;;;;;;;;9.30;99.90;;;;;;5029909;28;20020;-68
2022/12/20 04:23:34;;;;;;;;;;;9.30;99.90;;;;;;5030319;28;19913;-67
2022/12/20 04:26:00;;;;;;;;;;;9.30;99.90;;;;;;5030026;28;19931;-67
2022/12/20 04:28:26;;;;;;;;;;;9.40;99.90;;;;;;5024260;28;19917;-68
2022/12/20 04:30:53;;;;;;;;;;;9.50;99.90;;;;;;5021547;28;20309;-68
2022/12/20 04:33:18;;;;;;;;;;;9.50;99.90;;;;;;5029911;28;19975;-68
2022/12/20 04:35:44;;;;;;;;;;;9.50;99.90;;;;;;5029603;28;19927;-68
2022/12/20 04:38:09;;;;;;;;;;;9.60;99.90;;;;;;5024442;28;19971;-68
2022/12/20 04:40:35;;;;;;;;;;;9.60;99.90;;;;;;5028730;28;19939;-68
2022/12/20 04:43:01;;;;;;;;;;;9.60;99.90;;;;;;5029824;28;19923;-69
2022/12/20 04:45:26;;;;;;;;;;;9.60;99.90;;;;;;5030302;28;19995;-68
2022/12/20 04:47:52;;;;;;;;;;;9.60;99.90;;;;;;5015115;28;19909;-68
2022/12/20 04:50:18;;;;;;;;;;;9.60;99.90;;;;;;5027175;28;19913;-68
2022/12/20 04:55:28;;;;;;;;;;;9.70;99.90;;;;;;5026938;28;19913;-68
2022/12/20 04:57:53;;;;;;;;;;;9.80;99.90;;;;;;5030356;28;19967;-69
2022/12/20 05:00:19;;;;;;;;;;;9.80;99.90;;;;;;5029230;28;19917;-68
2022/12/20 05:02:45;;;;;;;;;;;9.80;99.90;;;;;;5026752;28;19964;-68
2022/12/20 05:05:11;;;;;;;;;;;9.80;99.90;;;;;;5030202;28;20238;-68
2022/12/20 05:07:36;;;;;;;;;;;9.80;99.90;;;;;;5029671;28;20368;-68
2022/12/20 05:10:03;;;;;;;;;;;9.90;99.90;;;;;;5022818;28;20004;-68
2022/12/20 05:12:28;;;;;;;;;;;9.90;99.90;;;;;;5030345;28;19942;-68
2022/12/20 05:14:54;;;;;;;;;;;9.90;99.90;;;;;;5025105;28;19996;-68
2022/12/20 05:17:19;;;;;;;;;;;9.90;99.90;;;;;;5030418;28;20199;-69
2022/12/20 05:19:45;;;;;;;;;;;9.90;99.90;;;;;;5023564;28;20377;-69
2022/12/20 05:27:39;;;;;;;;;;;9.90;99.90;;;;;;5030649;28;19919;-68
2022/12/20 05:30:07;;;;;;;;;;;9.90;99.90;;;;;;5028252;28;19913;-68
2022/12/20 05:32:32;;;;;;;;;;;9.90;99.90;;;;;;5013213;28;19979;-67
2022/12/20 05:34:58;;;;;;;;;;;10.00;99.90;;;;;;5012563;28;19956;-68
2022/12/20 05:37:24;;;;;;;;;;;10.00;99.90;;;;;;5028087;28;19924;-68
2022/12/20 05:39:49;;;;;;;;;;;10.00;99.90;;;;;;5029011;28;19917;-68
2022/12/20 05:42:15;;;;;;;;;;;10.00;99.90;;;;;;5005008;28;20013;-68
2022/12/20 05:44:40;;;;;;;;;;;10.00;99.90;;;;;;5022049;28;19955;-68
2022/12/20 05:47:06;;;;;;;;;;;10.00;99.90;;;;;;5019875;28;20246;-68
2022/12/20 05:49:33;;;;;;;;;;;10.00;99.90;;;;;;5029479;28;19995;-68
2022/12/20 05:51:59;;;;;;;;;;;10.00;99.90;;;;;;5028682;28;19923;-68
2022/12/20 05:54:25;;;;;;;;;;;10.00;99.90;;;;;;5009754;28;20314;-68
2022/12/20 05:56:50;;;;;;;;;;;10.00;99.90;;;;;;5012677;28;19913;-67
2022/12/20 05:59:17;;;;;;;;;;;10.00;99.90;;;;;;5025803;28;19924;-68
2022/12/20 06:01:42;;;;;;;;;;;9.90;99.90;;;;;;5030112;28;19916;-67
2022/12/20 06:04:08;;;;;;;;;;;9.90;99.90;;;;;;5024147;28;19912;-68
2022/12/20 06:06:34;;;;;;;;;;;9.90;99.90;;;;;;5031454;28;20307;-69
2022/12/20 06:09:00;;;;;;;;;;;9.90;99.90;;;;;;5033718;28;19960;-68
2022/12/20 06:11:25;;;;;;;;;;;9.80;99.90;;;;;;5035605;28;19944;-68
2022/12/20 06:13:52;;;;;;;;;;;9.90;99.90;;;;;;5035823;28;19959;-70
2022/12/20 06:16:19;;;;;;;;;;;9.80;99.90;;;;;;5036070;28;19909;-68
2022/12/20 06:18:45;;;;;;;;;;;9.80;99.90;;;;;;5032936;28;19920;-68
2022/12/20 06:21:11;;;;;;;;;;;9.80;99.90;;;;;;5035239;28;19917;-67
2022/12/20 06:23:36;;;;;;;;;;;9.80;99.90;;;;;;5036272;28;19924;-66
2022/12/20 06:26:03;;;;;;;;;;;9.80;99.90;;;;;;5033083;28;19924;-70
2022/12/20 06:28:29;;;;;;;;;;;9.80;99.90;;;;;;5027226;28;19959;-70
2022/12/20 06:30:55;;;;;;;;;;;9.70;99.90;;;;;;5030159;28;20337;-70
2022/12/20 06:33:21;;;;;;;;;;;9.70;99.90;;;;;;5035458;28;19920;-71
2022/12/20 06:35:48;;;;;;;;;;;9.80;99.90;;;;;;5035032;28;19913;-70
2022/12/20 06:38:13;;;;;;;;;;;9.70;99.90;;;;;;5025983;28;19914;-69
2022/12/20 06:40:39;;;;;;;;;;;9.70;99.90;;;;;;5009699;28;19979;-68
2022/12/20 06:43:05;;;;;;;;;;;9.70;99.90;;;;;;5032319;28;19913;-67
2022/12/20 06:45:30;;;;;;;;;;;9.70;99.90;;;;;;5027230;28;19919;-69
2022/12/20 06:47:56;;;;;;;;;;;9.70;99.90;;;;;;5013086;28;20020;-66
2022/12/20 06:50:22;;;;;;;;;;;9.70;99.90;;;;;;5016883;28;19913;-66
2022/12/20 06:52:48;;;;;;;;;;;9.70;99.90;;;;;;5033921;28;19912;-66
2022/12/20 06:55:14;;;;;;;;;;;9.70;99.90;;;;;;5030038;28;19920;-66
2022/12/20 06:57:40;;;;;;;;;;;9.70;99.90;;;;;;5034671;28;20624;-67
2022/12/20 07:00:07;;;;;;;;;;;9.70;99.90;;;;;;5033982;28;20015;-66
2022/12/20 07:02:33;;;;;;;;;;;9.60;99.90;;;;;;5035145;28;19974;-68
2022/12/20 07:04:58;;;;;;;;;;;9.60;99.90;;;;;;5030588;28;20613;-66
2022/12/20 07:07:24;;;;;;;;;;;9.70;99.90;;;;;;5032642;28;19920;-67
2022/12/20 07:09:50;;;;;;;;;;;9.70;99.90;;;;;;5013547;28;20003;-67
2022/12/20 07:12:16;;;;;;;;;;;9.60;99.90;;;;;;5033998;28;19972;-68
2022/12/20 07:14:42;;;;;;;;;;;9.60;99.90;;;;;;5032931;28;19912;-68
2022/12/20 07:17:07;;;;;;;;;;;9.60;99.90;;;;;;5017508;28;19913;-68
2022/12/20 07:19:35;;;;;;;;;;;9.60;99.90;;;;;;5030839;28;21423;-66
2022/12/20 07:22:01;;;;;;;;;;;9.60;99.90;;;;;;5028975;28;19913;-67
2022/12/20 07:24:27;;;;;;;;;;;9.60;99.90;;;;;;5032031;28;20289;-68
2022/12/20 07:26:52;;;;;;;;;;;9.50;99.90;;;;;;5031144;28;19924;-67
2022/12/20 07:29:18;;;;;;;;;;;9.50;99.90;;;;;;5027765;28;19958;-66
2022/12/20 07:31:43;;;;;;;;;;;9.50;99.90;;;;;;5024766;28;19913;-67
2022/12/20 07:34:09;;;;;;;;;;;9.60;99.90;;;;;;5031825;28;19978;-66
2022/12/20 07:36:35;;;;;;;;;;;9.50;99.90;;;;;;5028443;28;19924;-67
2022/12/20 07:39:00;;;;;;;;;;;9.50;99.90;;;;;;5016102;28;20418;-69
2022/12/20 07:41:26;;;;;;;;;;;9.50;99.90;;;;;;5029198;28;19921;-66
2022/12/20 07:43:52;;;;;;;;;;;9.60;99.90;;;;;;5032134;28;19920;-67
2022/12/20 07:46:17;;;;;;;;;;;9.60;99.90;;;;;;4999172;28;19912;-67
2022/12/20 07:48:43;;;;;;;;;;;9.60;99.90;;;;;;5028259;28;19940;-67
2022/12/20 07:51:17;;;;;;;;;;;9.60;99.90;;;;;;5029925;28;19917;-67
2022/12/20 07:53:44;;;;;;;;;;;9.60;99.90;;;;;;5004884;28;19913;-67
2022/12/20 07:56:10;;;;;;;;;;;9.60;99.90;;;;;;5031028;28;19939;-66
2022/12/20 07:58:36;;;;;;;;;;;9.60;99.90;;;;;;5030732;28;19921;-66
2022/12/20 08:01:03;;;;;;;;;;;9.70;99.90;;;;;;5011700;28;19924;-68
2022/12/20 08:03:36;;;;;;;;;;;9.70;99.90;;;;;;5024440;28;19948;-66
2022/12/20 08:06:02;;;;;;;;;;;9.70;99.90;;;;;;4993663;28;20281;-68
2022/12/20 08:08:29;;;;;;;;;;;9.70;99.90;;;;;;5014192;28;19971;-68
2022/12/20 08:10:54;;;;;;;;;;;9.70;99.90;;;;;;5012021;28;20365;-68
2022/12/20 08:13:20;;;;;;;;;;;9.70;99.90;;;;;;5021996;28;19917;-68
2022/12/20 08:15:45;;;;;;;;;;;9.70;99.90;;;;;;5028299;28;19921;-69
2022/12/20 08:18:11;;;;;;;;;;;9.70;99.90;;;;;;5030734;28;19963;-69
2022/12/20 08:20:37;;;;;;;;;;;9.60;99.90;;;;;;5013856;28;19917;-68
2022/12/20 08:23:03;;;;;;;;;;;9.60;99.90;;;;;;5028748;28;20011;-69
2022/12/20 08:25:28;;;;;;;;;;;9.60;99.90;;;;;;5008272;28;20010;-68
2022/12/20 08:27:54;;;;;;;;;;;9.60;99.90;;;;;;5027974;28;19948;-69
2022/12/20 08:30:20;;;;;;;;;;;9.60;99.90;;;;;;5030158;28;19994;-68
2022/12/20 08:32:46;;;;;;;;;;;9.60;99.90;;;;;;5028937;28;20331;-69
2022/12/20 08:35:11;;;;;;;;;;;9.60;99.90;;;;;;5029944;28;19978;-68
2022/12/20 08:37:37;;;;;;;;;;;9.60;99.90;;;;;;5029953;28;19936;-67
2022/12/20 08:40:03;;;;;;;;;;;9.60;99.90;;;;;;5028433;28;19921;-68
2022/12/20 08:42:28;;;;;;;;;;;9.60;99.90;;;;;;5008499;28;19975;-68
2022/12/20 08:44:54;;;;;;;;;;;9.60;99.90;;;;;;5026064;28;19912;-69
2022/12/20 08:47:23;;;;;;;;;;;9.60;99.90;;;;;;5029823;28;19920;-69
2022/12/20 08:49:48;;;;;;;;;;;9.60;99.90;;;;;;5030521;28;19913;-69
2022/12/20 08:52:14;;;;;;;;;;;9.70;99.90;;;;;;5007759;28;19919;-68
2022/12/20 08:54:39;;;;;;;;;;;9.70;99.90;;;;;;5030162;28;19943;-69
2022/12/20 08:57:05;;;;;;;;;;;9.80;99.90;;;;;;5023643;28;19917;-68
2022/12/20 08:59:31;;;;;;;;;;;9.80;99.90;;;;;;5012855;28;19944;-69
2022/12/20 09:01:56;;;;;;;;;;;9.90;99.90;;;;;;5030267;28;20369;-68
2022/12/20 09:04:22;;;;;;;;;;;10.00;99.90;;;;;;5027886;28;19979;-68
2022/12/20 09:06:48;;;;;;;;;;;10.00;99.90;;;;;;5024827;28;19914;-67
2022/12/20 09:09:15;;;;;;;;;;;9.90;99.90;;;;;;5011286;28;19917;-68
2022/12/20 09:11:40;;;;;;;;;;;9.90;99.90;;;;;;5013223;28;19913;-70
2022/12/20 09:14:07;;;;;;;;;;;9.90;99.90;;;;;;5030140;28;20357;-69
2022/12/20 09:16:32;;;;;;;;;;;10.00;99.90;;;;;;5029155;28;20357;-69
2022/12/20 09:18:58;;;;;;;;;;;10.00;99.90;;;;;;5030599;28;19948;-69
2022/12/20 09:21:24;;;;;;;;;;;10.00;99.90;;;;;;5009128;28;20008;-69
2022/12/20 09:23:50;;;;;;;;;;;10.00;99.90;;;;;;5025090;28;20000;-68
2022/12/20 09:26:16;;;;;;;;;;;10.10;99.90;;;;;;5028355;28;20327;-68
2022/12/20 09:28:42;;;;;;;;;;;10.10;99.90;;;;;;5027519;28;19919;-68
2022/12/20 09:31:10;;;;;;;;;;;10.20;99.90;;;;;;5029501;28;19913;-68
2022/12/20 09:33:36;;;;;;;;;;;10.20;99.90;;;;;;5029360;28;19913;-69
2022/12/20 09:36:01;;;;;;;;;;;10.30;99.90;;;;;;4995292;28;19924;-69
2022/12/20 09:38:27;;;;;;;;;;;10.20;99.90;;;;;;5011851;28;19948;-68
2022/12/20 09:40:54;;;;;;;;;;;10.20;99.90;;;;;;4994379;28;20349;-68
2022/12/20 09:43:19;;;;;;;;;;;10.20;99.90;;;;;;5008881;28;19913;-68
2022/12/20 09:45:46;;;;;;;;;;;10.30;99.90;;;;;;5024792;28;19996;-67
2022/12/20 09:48:15;;;;;;;;;;;10.30;99.90;;;;;;5013012;28;19987;-67
2022/12/20 09:50:56;;;;;;;;;;;10.30;99.90;;;;;;5027671;28;19944;-71
2022/12/20 09:53:25;;;;;;;;;;;10.40;99.90;;;;;;5027525;28;20085;-71
2022/12/20 09:56:20;;;;;;;;;;;10.40;99.90;;;;;;5027683;28;19920;-71
2022/12/20 09:58:57;;;;;;;;;;;10.50;99.90;;;;;;5028066;28;19924;-69
2022/12/20 10:01:26;;;;;;;;;;;10.50;99.90;;;;;;5027456;28;20007;-73
2022/12/20 10:03:51;;;;;;;;;;;10.60;99.90;;;;;;5021471;28;19917;-73
2022/12/20 10:06:36;;;;;;;;;;;10.60;99.90;;;;;;5027887;28;20247;-69
2022/12/20 10:09:10;;;;;;;;;;;10.60;99.90;;;;;;5027709;28;20009;-72
2022/12/20 10:11:54;;;;;;;;;;;10.60;99.90;;;;;;5027933;28;19913;-72
2022/12/20 10:14:20;;;;;;;;;;;10.70;99.90;;;;;;5025370;28;19928;-72
2022/12/20 10:16:50;;;;;;;;;;;10.60;99.90;;;;;;5027964;28;19916;-71
2022/12/20 10:19:26;;;;;;;;;;;10.70;99.90;;;;;;5011126;28;19912;-72
2022/12/20 10:21:55;;;;;;;;;;;10.70;99.90;;;;;;5002875;28;20011;-72
2022/12/20 10:24:24;;;;;;;;;;;10.70;99.90;;;;;;5025633;28;19917;-72
2022/12/20 10:26:50;;;;;;;;;;;10.70;99.90;;;;;;5028003;28;19963;-72
2022/12/20 10:29:16;;;;;;;;;;;10.70;99.90;;;;;;5035886;28;20058;-72
2022/12/20 10:31:41;;;;;;;;;;;10.70;99.90;;;;;;5012159;28;19913;-71
2022/12/20 10:34:07;;;;;;;;;;;10.70;99.90;;;;;;5026202;28;19922;-71
2022/12/20 10:36:34;;;;;;;;;;;10.90;99.90;;;;;;5003887;28;19966;-72
2022/12/20 10:39:02;;;;;;;;;;;11.00;99.90;;;;;;5014025;28;19913;-68
2022/12/20 10:41:28;;;;;;;;;;;11.10;99.90;;;;;;5020021;28;19928;-70
2022/12/20 10:43:58;;;;;;;;;;;11.10;99.90;;;;;;5000402;28;20338;-72
2022/12/20 10:46:33;;;;;;;;;;;11.10;99.90;;;;;;5025553;28;19924;-71
2022/12/20 10:48:59;;;;;;;;;;;11.10;99.90;;;;;;5023871;28;20263;-69
2022/12/20 10:51:24;;;;;;;;;;;11.10;99.90;;;;;;5024857;28;19932;-70
2022/12/20 10:53:50;;;;;;;;;;;11.10;99.90;;;;;;4999007;28;19949;-71
2022/12/20 10:56:20;;;;;;;;;;;11.30;99.90;;;;;;5024561;28;19917;-70
2022/12/20 10:58:53;;;;;;;;;;;11.50;99.90;;;;;;5028401;28;19913;-71
2022/12/20 11:01:27;;;;;;;;;;;11.50;99.90;;;;;;5027604;28;19935;-72
2022/12/20 11:03:52;;;;;;;;;;;11.40;99.90;;;;;;5022515;28;19917;-72
2022/12/20 11:06:18;;;;;;;;;;;11.30;99.90;;;;;;5028650;28;20330;-70
2022/12/20 11:08:44;;;;;;;;;;;11.40;99.90;;;;;;5023125;28;20258;-71
2022/12/20 11:11:13;;;;;;;;;;;11.40;99.90;;;;;;5000562;28;19910;-71
2022/12/20 11:13:39;;;;;;;;;;;11.40;99.90;;;;;;5028296;28;19963;-72
2022/12/20 11:16:05;;;;;;;;;;;11.50;99.90;;;;;;5034746;28;19939;-71
2022/12/20 11:18:35;;;;;;;;;;;11.50;99.90;;;;;;5027468;28;20595;-71
2022/12/20 11:21:07;;;;;;;;;;;11.40;99.90;;;;;;5017107;28;20331;-71
2022/12/20 11:23:35;;;;;;;;;;;11.50;99.90;;;;;;5021675;28;20341;-72
2022/12/20 11:26:13;;;;;;;;;;;11.50;99.90;;;;;;5007706;28;19924;-71
2022/12/20 11:28:57;;;;;;;;;;;11.50;99.90;;;;;;5025017;28;20000;-71
2022/12/20 11:31:26;;;;;;;;;;;11.60;99.90;;;;;;5024225;28;19970;-72
2022/12/20 11:34:18;;;;;;;;;;;11.60;99.90;;;;;;5028676;28;19920;-72
2022/12/20 11:37:02;;;;;;;;;;;11.70;99.90;;;;;;5003266;28;19913;-71
2022/12/20 11:39:30;;;;;;;;;;;11.70;99.90;;;;;;5027133;28;19923;-72
2022/12/20 11:42:32;;;;;;;;;;;11.70;99.90;;;;;;5024785;28;19964;-71
2022/12/20 11:45:17;;;;;;;;;;;11.70;99.90;;;;;;5020361;28;19912;-72
2022/12/20 11:47:54;;;;;;;;;;;11.70;99.90;;;;;;5027349;28;20250;-72
2022/12/20 11:50:39;;;;;;;;;;;11.70;99.90;;;;;;5026980;28;20027;-72
2022/12/20 11:53:06;;;;;;;;;;;11.70;99.90;;;;;;5024825;28;19923;-72
2022/12/20 11:55:33;;;;;;;;;;;11.70;99.90;;;;;;5027486;28;19913;-72
2022/12/20 11:58:02;;;;;;;;;;;11.70;99.90;;;;;;5019331;28;20157;-73
2022/12/20 12:00:29;;;;;;;;;;;11.70;99.90;;;;;;5026197;28;20326;-72
2022/12/20 12:02:59;;;;;;;;;;;11.70;99.90;;;;;;5026977;28;19913;-72
2022/12/20 12:05:44;;;;;;;;;;;11.70;99.90;;;;;;5027579;28;19916;-72
2022/12/20 12:08:14;;;;;;;;;;;11.70;99.90;;;;;;5021965;28;20390;-72
2022/12/20 12:10:40;;;;;;;;;;;11.70;99.90;;;;;;5026051;28;19954;-71
2022/12/20 12:13:11;;;;;;;;;;;11.80;99.90;;;;;;5027080;28;19916;-73
2022/12/20 12:15:57;;;;;;;;;;;11.80;99.90;;;;;;5023707;28;19963;-72
2022/12/20 12:18:23;;;;;;;;;;;11.70;99.90;;;;;;5026560;28;19913;-74
2022/12/20 12:21:01;;;;;;;;;;;11.70;99.90;;;;;;5025059;28;19974;-72
2022/12/20 12:23:45;;;;;;;;;;;11.70;99.90;;;;;;5026767;28;19968;-71
2022/12/20 12:26:14;;;;;;;;;;;11.70;99.90;;;;;;5027771;28;19916;-72
2022/12/20 12:28:40;;;;;;;;;;;11.70;99.90;;;;;;5012420;28;19917;-72
2022/12/20 12:31:10;;;;;;;;;;;11.70;99.90;;;;;;5023246;28;19913;-72
2022/12/20 12:33:44;;;;;;;;;;;11.70;99.90;;;;;;5026711;28;20092;-72
2022/12/20 12:36:36;;;;;;;;;;;11.70;99.90;;;;;;4997142;28;20390;-72
2022/12/20 12:39:05;;;;;;;;;;;11.70;99.90;;;;;;5025155;28;19921;-72
2022/12/20 12:41:49;;;;;;;;;;;11.70;99.90;;;;;;5027634;28;19921;-72
2022/12/20 12:44:25;;;;;;;;;;;11.70;99.90;;;;;;5027158;28;19923;-73
2022/12/20 12:46:53;;;;;;;;;;;11.70;99.90;;;;;;5027422;28;19913;-71
2022/12/20 12:49:23;;;;;;;;;;;11.70;99.90;;;;;;5026993;28;19935;-72
2022/12/20 12:51:49;;;;;;;;;;;11.70;99.90;;;;;;5022643;28;19975;-72
2022/12/20 12:54:17;;;;;;;;;;;11.70;99.90;;;;;;5025618;28;19913;-71
2022/12/20 12:56:49;;;;;;;;;;;11.70;99.90;;;;;;5026914;28;20247;-72
2022/12/20 12:59:15;;;;;;;;;;;11.70;99.90;;;;;;5017024;28;19912;-72
2022/12/20 13:01:52;;;;;;;;;;;11.70;99.90;;;;;;5027067;28;19917;-71
2022/12/20 13:04:21;;;;;;;;;;;11.70;99.90;;;;;;5009252;28;19924;-72
2022/12/20 13:06:46;;;;;;;;;;;11.60;99.90;;;;;;5028001;28;19987;-71
2022/12/20 13:09:24;;;;;;;;;;;11.60;99.90;;;;;;5025515;28;20311;-71
2022/12/20 13:11:53;;;;;;;;;;;11.60;99.90;;;;;;5027345;28;19919;-72
2022/12/20 13:14:19;;;;;;;;;;;11.60;99.90;;;;;;5025146;28;19924;-73
2022/12/20 13:16:45;;;;;;;;;;;11.60;99.90;;;;;;5027229;28;19912;-72
2022/12/20 13:19:14;;;;;;;;;;;11.70;99.90;;;;;;5025864;28;19963;-73
2022/12/20 13:21:40;;;;;;;;;;;11.60;99.90;;;;;;5026137;28;20264;-72
2022/12/20 13:24:25;;;;;;;;;;;11.60;99.90;;;;;;5026012;28;19917;-72
2022/12/20 13:26:51;;;;;;;;;;;11.60;99.90;;;;;;5023984;28;19971;-71
2022/12/20 13:29:17;;;;;;;;;;;11.60;99.90;;;;;;5025673;28;20546;-73
2022/12/20 13:31:43;;;;;;;;;;;11.60;99.90;;;;;;5009059;28;20350;-72
2022/12/20 13:34:29;;;;;;;;;;;11.60;99.90;;;;;;5022808;28;20580;-73
2022/12/20 13:36:57;;;;;;;;;;;11.60;99.90;;;;;;5019256;28;19992;-73
2022/12/20 13:39:22;;;;;;;;;;;11.60;99.90;;;;;;5021519;28;19913;-73
2022/12/20 13:41:50;;;;;;;;;;;11.60;99.90;;;;;;5026223;28;19931;-73
2022/12/20 13:44:15;;;;;;;;;;;11.60;99.90;;;;;;5026357;28;19996;-72
2022/12/20 13:46:45;;;;;;;;;;;11.60;99.90;;;;;;5024766;28;19933;-72
2022/12/20 13:49:12;;;;;;;;;;;11.60;99.90;;;;;;5007921;28;19917;-73
2022/12/20 13:51:38;;;;;;;;;;;11.60;99.90;;;;;;5024752;28;19966;-73
2022/12/20 13:54:07;;;;;;;;;;;11.60;99.90;;;;;;5026541;28;20338;-73
2022/12/20 13:56:46;;;;;;;;;;;11.50;99.90;;;;;;5022167;28;19913;-72
2022/12/20 13:59:32;;;;;;;;;;;11.60;99.90;;;;;;5020156;28;19995;-72
2022/12/20 14:02:02;;;;;;;;;;;11.60;99.90;;;;;;5008593;28;20535;-71
2022/12/20 14:04:37;;;;;;;;;;;11.60;99.90;;;;;;5022326;28;19951;-71
2022/12/20 14:07:03;;;;;;;;;;;11.60;99.90;;;;;;4999829;28;19920;-71
2022/12/20 14:09:32;;;;;;;;;;;11.50;99.90;;;;;;5007051;28;19913;-72
2022/12/20 14:12:02;;;;;;;;;;;11.60;99.90;;;;;;5025679;28;19916;-72
2022/12/20 14:14:27;;;;;;;;;;;11.60;99.90;;;;;;5026257;28;19912;-71
2022/12/20 14:16:53;;;;;;;;;;;11.50;99.90;;;;;;5018044;28;19913;-72
2022/12/20 14:19:19;;;;;;;;;;;11.60;99.90;;;;;;5025377;28;19916;-72
2022/12/20 14:21:44;;;;;;;;;;;11.60;99.90;;;;;;5025469;28;19991;-72
2022/12/20 14:24:14;;;;;;;;;;;11.50;99.90;;;;;;5023005;28;19924;-71
2022/12/20 14:26:44;;;;;;;;;;;11.60;99.90;;;;;;5024973;28;19912;-73
2022/12/20 14:29:19;;;;;;;;;;;11.60;99.90;;;;;;5025580;28;20468;-73
2022/12/20 14:31:47;;;;;;;;;;;11.60;99.90;;;;;;4995095;28;20039;-73
2022/12/20 14:34:15;;;;;;;;;;;11.60;99.90;;;;;;5008641;28;19968;-72
2022/12/20 14:36:47;;;;;;;;;;;11.60;99.90;;;;;;5031705;28;19916;-72